sensor_id;sensor_type;location;lat;lon;timestamp;pressure;altitude;pressure_sealevel;temperature;humidity
76730;BME280;65653;53.106;18.046;2023-09-12T00:00:58;100546.89;;;15.51;81.93
76730;BME280;65653;53.106;18.046;2023-09-12T00:03:34;100547.41;;;15.48;82.42
76730;BME280;65653;53.106;18.046;2023-09-12T00:06:02;100543.75;;;15.46;82.34
76730;BME280;65653;53.106;18.046;2023-09-12T00:08:28;100541.83;;;15.44;82.57
76730;BME280;65653;53.106;18.046;2023-09-12T00:13:25;100538.42;;;15.38;82.50
76730;BME280;65653;53.106;18.046;2023-09-12T00:15:52;100543.20;;;15.39;82.98
76730;BME280;65653;53.106;18.046;2023-09-12T00:18:18;100539.59;;;15.40;82.81
76730;BME280;65653;53.106;18.046;2023-09-12T00:20:45;100542.81;;;15.37;82.94
76730;BME280;65653;53.106;18.046;2023-09-12T00:23:11;100540.55;;;15.34;83.07
76730;BME280;65653;53.106;18.046;2023-09-12T00:25:38;100547.73;;;15.30;83.21
76730;BME280;65653;53.106;18.046;2023-09-12T00:28:04;100545.66;;;15.28;83.56
76730;BME280;65653;53.106;18.046;2023-09-12T00:30:31;100548.77;;;15.26;83.58
76730;BME280;65653;53.106;18.046;2023-09-12T00:32:57;100546.67;;;15.24;83.82
76730;BME280;65653;53.106;18.046;2023-09-12T00:35:24;100547.83;;;15.22;83.84
76730;BME280;65653;53.106;18.046;2023-09-12T00:37:50;100547.13;;;15.20;84.15
76730;BME280;65653;53.106;18.046;2023-09-12T00:40:16;100546.14;;;15.17;84.15
76730;BME280;65653;53.106;18.046;2023-09-12T00:42:43;100544.21;;;15.14;84.50
76730;BME280;65653;53.106;18.046;2023-09-12T00:45:09;100540.91;;;15.11;84.56
76730;BME280;65653;53.106;18.046;2023-09-12T00:47:36;100540.92;;;15.08;84.56
76730;BME280;65653;53.106;18.046;2023-09-12T00:50:04;100538.36;;;15.04;84.88
76730;BME280;65653;53.106;18.046;2023-09-12T00:52:33;100540.46;;;15.01;85.38
76730;BME280;65653;53.106;18.046;2023-09-12T00:55:01;100540.77;;;14.98;85.38
76730;BME280;65653;53.106;18.046;2023-09-12T00:57:30;100536.77;;;14.94;85.43
76730;BME280;65653;53.106;18.046;2023-09-12T00:59:57;100538.30;;;14.91;85.57
76730;BME280;65653;53.106;18.046;2023-09-12T01:02:24;100536.41;;;14.89;85.84
76730;BME280;65653;53.106;18.046;2023-09-12T01:04:51;100536.41;;;14.87;85.78
76730;BME280;65653;53.106;18.046;2023-09-12T01:07:18;100535.39;;;14.85;85.83
76730;BME280;65653;53.106;18.046;2023-09-12T01:09:45;100530.70;;;14.84;86.55
76730;BME280;65653;53.106;18.046;2023-09-12T01:12:11;100532.15;;;14.84;87.31
76730;BME280;65653;53.106;18.046;2023-09-12T01:14:40;100531.66;;;14.85;87.28
76730;BME280;65653;53.106;18.046;2023-09-12T01:17:07;100529.61;;;14.81;86.81
76730;BME280;65653;53.106;18.046;2023-09-12T01:19:33;100522.89;;;14.78;86.87
76730;BME280;65653;53.106;18.046;2023-09-12T01:27:48;100526.63;;;14.72;87.29
76730;BME280;65653;53.106;18.046;2023-09-12T01:30:20;100520.67;;;14.68;87.66
76730;BME280;65653;53.106;18.046;2023-09-12T01:32:47;100525.19;;;14.68;87.88
76730;BME280;65653;53.106;18.046;2023-09-12T01:35:13;100522.30;;;14.65;88.05
76730;BME280;65653;53.106;18.046;2023-09-12T01:37:40;100525.56;;;14.62;88.04
76730;BME280;65653;53.106;18.046;2023-09-12T01:40:07;100528.80;;;14.60;88.36
76730;BME280;65653;53.106;18.046;2023-09-12T01:42:38;100531.37;;;14.58;88.40
76730;BME280;65653;53.106;18.046;2023-09-12T01:45:09;100531.58;;;14.56;88.37
76730;BME280;65653;53.106;18.046;2023-09-12T01:47:37;100534.18;;;14.53;88.40
76730;BME280;65653;53.106;18.046;2023-09-12T01:50:05;100539.14;;;14.54;88.73
76730;BME280;65653;53.106;18.046;2023-09-12T01:52:35;100538.16;;;14.54;88.69
76730;BME280;65653;53.106;18.046;2023-09-12T01:55:03;100543.49;;;14.52;88.61
76730;BME280;65653;53.106;18.046;2023-09-12T01:57:30;100547.98;;;14.51;88.49
76730;BME280;65653;53.106;18.046;2023-09-12T01:59:57;100543.25;;;14.49;89.05
76730;BME280;65653;53.106;18.046;2023-09-12T02:02:23;100545.92;;;14.49;88.92
76730;BME280;65653;53.106;18.046;2023-09-12T02:05:02;100545.93;;;14.49;89.01
76730;BME280;65653;53.106;18.046;2023-09-12T02:07:35;100539.73;;;14.47;89.30
76730;BME280;65653;53.106;18.046;2023-09-12T02:10:02;100542.73;;;14.45;89.39
76730;BME280;65653;53.106;18.046;2023-09-12T02:12:33;100545.39;;;14.44;89.50
76730;BME280;65653;53.106;18.046;2023-09-12T02:15:00;100543.28;;;14.43;89.43
76730;BME280;65653;53.106;18.046;2023-09-12T02:17:26;100544.84;;;14.42;89.67
76730;BME280;65653;53.106;18.046;2023-09-12T02:19:53;100544.53;;;14.49;89.72
76730;BME280;65653;53.106;18.046;2023-09-12T02:22:19;100546.50;;;14.59;89.25
76730;BME280;65653;53.106;18.046;2023-09-12T02:24:46;100548.89;;;14.65;88.85
76730;BME280;65653;53.106;18.046;2023-09-12T02:27:12;100548.50;;;14.63;89.12
76730;BME280;65653;53.106;18.046;2023-09-12T02:29:39;100548.42;;;14.59;89.42
76730;BME280;65653;53.106;18.046;2023-09-12T02:32:06;100546.27;;;14.55;89.55
76730;BME280;65653;53.106;18.046;2023-09-12T02:34:32;100547.85;;;14.54;89.43
76730;BME280;65653;53.106;18.046;2023-09-12T02:37:00;100546.98;;;14.59;88.55
76730;BME280;65653;53.106;18.046;2023-09-12T02:39:26;100546.20;;;14.61;88.26
76730;BME280;65653;53.106;18.046;2023-09-12T02:41:53;100545.78;;;14.61;88.00
76730;BME280;65653;53.106;18.046;2023-09-12T02:44:19;100547.48;;;14.57;88.96
76730;BME280;65653;53.106;18.046;2023-09-12T02:46:46;100548.30;;;14.50;89.21
76730;BME280;65653;53.106;18.046;2023-09-12T02:49:14;100553.08;;;14.46;89.08
76730;BME280;65653;53.106;18.046;2023-09-12T02:51:42;100552.78;;;14.42;89.10
76730;BME280;65653;53.106;18.046;2023-09-12T02:54:08;100554.38;;;14.41;88.57
76730;BME280;65653;53.106;18.046;2023-09-12T02:56:35;100555.27;;;14.39;88.77
76730;BME280;65653;53.106;18.046;2023-09-12T02:59:01;100552.56;;;14.34;89.33
76730;BME280;65653;53.106;18.046;2023-09-12T03:01:27;100552.83;;;14.29;89.66
76730;BME280;65653;53.106;18.046;2023-09-12T03:03:54;100552.34;;;14.22;89.69
76730;BME280;65653;53.106;18.046;2023-09-12T03:06:21;100546.26;;;14.16;89.56
76730;BME280;65653;53.106;18.046;2023-09-12T03:08:48;100548.75;;;14.10;89.78
76730;BME280;65653;53.106;18.046;2023-09-12T03:11:14;100555.48;;;14.07;89.92
76730;BME280;65653;53.106;18.046;2023-09-12T03:13:41;100553.95;;;14.02;89.95
76730;BME280;65653;53.106;18.046;2023-09-12T03:16:12;100554.41;;;14.00;89.80
76730;BME280;65653;53.106;18.046;2023-09-12T03:18:39;100553.80;;;13.97;90.34
76730;BME280;65653;53.106;18.046;2023-09-12T03:21:05;100550.36;;;13.94;90.70
76730;BME280;65653;53.106;18.046;2023-09-12T03:23:32;100553.73;;;13.91;90.63
76730;BME280;65653;53.106;18.046;2023-09-12T03:26:05;100554.69;;;13.90;90.68
76730;BME280;65653;53.106;18.046;2023-09-12T03:28:32;100553.94;;;13.88;90.79
76730;BME280;65653;53.106;18.046;2023-09-12T03:31:10;100549.73;;;13.85;90.79
76730;BME280;65653;53.106;18.046;2023-09-12T03:33:41;100552.50;;;13.82;90.89
76730;BME280;65653;53.106;18.046;2023-09-12T03:36:08;100551.41;;;13.81;91.01
76730;BME280;65653;53.106;18.046;2023-09-12T03:38:35;100550.61;;;13.78;91.09
76730;BME280;65653;53.106;18.046;2023-09-12T03:41:02;100553.81;;;13.75;91.69
76730;BME280;65653;53.106;18.046;2023-09-12T03:43:28;100550.96;;;13.73;91.91
76730;BME280;65653;53.106;18.046;2023-09-12T03:45:55;100553.52;;;13.71;91.91
76730;BME280;65653;53.106;18.046;2023-09-12T03:48:21;100549.09;;;13.68;92.21
76730;BME280;65653;53.106;18.046;2023-09-12T03:50:48;100552.20;;;13.66;92.31
76730;BME280;65653;53.106;18.046;2023-09-12T03:53:14;100547.23;;;13.65;92.66
76730;BME280;65653;53.106;18.046;2023-09-12T03:55:42;100547.75;;;13.65;93.17
76730;BME280;65653;53.106;18.046;2023-09-12T03:58:08;100543.44;;;13.64;92.99
76730;BME280;65653;53.106;18.046;2023-09-12T04:00:35;100546.09;;;13.62;92.76
76730;BME280;65653;53.106;18.046;2023-09-12T04:03:01;100550.79;;;13.61;92.64
76730;BME280;65653;53.106;18.046;2023-09-12T04:05:28;100550.92;;;13.60;92.61
76730;BME280;65653;53.106;18.046;2023-09-12T04:07:54;100554.07;;;13.59;92.66
76730;BME280;65653;53.106;18.046;2023-09-12T04:10:21;100549.79;;;13.58;92.51
76730;BME280;65653;53.106;18.046;2023-09-12T04:12:48;100553.90;;;13.58;92.62
76730;BME280;65653;53.106;18.046;2023-09-12T04:15:14;100558.08;;;13.56;92.76
76730;BME280;65653;53.106;18.046;2023-09-12T04:17:41;100557.63;;;13.54;92.85
76730;BME280;65653;53.106;18.046;2023-09-12T04:20:07;100553.36;;;13.52;93.05
76730;BME280;65653;53.106;18.046;2023-09-12T04:22:34;100555.02;;;13.52;92.85
76730;BME280;65653;53.106;18.046;2023-09-12T04:25:01;100560.20;;;13.54;92.87
76730;BME280;65653;53.106;18.046;2023-09-12T04:27:27;100559.62;;;13.55;92.81
76730;BME280;65653;53.106;18.046;2023-09-12T04:29:53;100555.56;;;13.55;92.52
76730;BME280;65653;53.106;18.046;2023-09-12T04:32:20;100554.77;;;13.57;92.68
76730;BME280;65653;53.106;18.046;2023-09-12T04:34:50;100549.84;;;13.57;92.72
76730;BME280;65653;53.106;18.046;2023-09-12T04:37:17;100552.94;;;13.60;92.80
76730;BME280;65653;53.106;18.046;2023-09-12T04:39:44;100555.81;;;13.65;92.77
76730;BME280;65653;53.106;18.046;2023-09-12T04:42:11;100553.58;;;13.69;92.49
76730;BME280;65653;53.106;18.046;2023-09-12T04:44:39;100558.48;;;13.76;92.29
76730;BME280;65653;53.106;18.046;2023-09-12T04:47:07;100553.50;;;13.84;91.99
76730;BME280;65653;53.106;18.046;2023-09-12T04:49:34;100556.02;;;13.93;91.20
76730;BME280;65653;53.106;18.046;2023-09-12T04:52:00;100553.84;;;14.04;90.87
76730;BME280;65653;53.106;18.046;2023-09-12T04:54:27;100554.41;;;14.14;90.45
76730;BME280;65653;53.106;18.046;2023-09-12T04:56:54;100555.07;;;14.20;90.24
76730;BME280;65653;53.106;18.046;2023-09-12T04:59:20;100554.56;;;14.27;89.73
76730;BME280;65653;53.106;18.046;2023-09-12T05:01:47;100552.84;;;14.38;89.31
76730;BME280;65653;53.106;18.046;2023-09-12T05:04:13;100554.87;;;14.46;88.94
76730;BME280;65653;53.106;18.046;2023-09-12T05:06:40;100554.70;;;14.55;88.44
76730;BME280;65653;53.106;18.046;2023-09-12T05:09:07;100554.70;;;14.63;88.29
76730;BME280;65653;53.106;18.046;2023-09-12T05:11:35;100553.42;;;14.69;88.09
76730;BME280;65653;53.106;18.046;2023-09-12T05:14:02;100558.91;;;14.72;88.49
76730;BME280;65653;53.106;18.046;2023-09-12T05:16:31;100560.27;;;14.78;88.20
76730;BME280;65653;53.106;18.046;2023-09-12T05:18:58;100560.98;;;14.86;87.92
76730;BME280;65653;53.106;18.046;2023-09-12T05:21:25;100563.52;;;14.98;87.45
76730;BME280;65653;53.106;18.046;2023-09-12T05:23:51;100572.61;;;15.10;86.90
76730;BME280;65653;53.106;18.046;2023-09-12T05:26:18;100571.10;;;15.19;86.75
76730;BME280;65653;53.106;18.046;2023-09-12T05:28:44;100575.11;;;15.30;86.55
76730;BME280;65653;53.106;18.046;2023-09-12T05:31:11;100577.25;;;15.39;86.14
76730;BME280;65653;53.106;18.046;2023-09-12T05:33:38;100576.95;;;15.49;86.26
76730;BME280;65653;53.106;18.046;2023-09-12T05:36:04;100574.06;;;15.62;85.67
76730;BME280;65653;53.106;18.046;2023-09-12T05:38:31;100575.30;;;15.76;85.49
76730;BME280;65653;53.106;18.046;2023-09-12T05:40:57;100573.71;;;15.93;85.42
76730;BME280;65653;53.106;18.046;2023-09-12T05:43:23;100571.39;;;16.08;85.07
76730;BME280;65653;53.106;18.046;2023-09-12T05:45:51;100567.60;;;16.21;84.56
76730;BME280;65653;53.106;18.046;2023-09-12T05:48:18;100566.52;;;16.32;84.31
76730;BME280;65653;53.106;18.046;2023-09-12T05:50:44;100561.54;;;16.43;84.48
76730;BME280;65653;53.106;18.046;2023-09-12T05:53:11;100561.02;;;16.54;84.24
76730;BME280;65653;53.106;18.046;2023-09-12T05:55:37;100563.97;;;16.69;84.55
76730;BME280;65653;53.106;18.046;2023-09-12T05:58:04;100565.66;;;16.83;84.30
76730;BME280;65653;53.106;18.046;2023-09-12T06:00:32;100567.10;;;17.00;84.30
76730;BME280;65653;53.106;18.046;2023-09-12T06:02:59;100567.20;;;17.17;83.93
76730;BME280;65653;53.106;18.046;2023-09-12T06:05:26;100565.81;;;17.33;83.44
76730;BME280;65653;53.106;18.046;2023-09-12T06:07:53;100567.69;;;17.47;83.07
76730;BME280;65653;53.106;18.046;2023-09-12T06:10:19;100567.17;;;17.64;82.64
76730;BME280;65653;53.106;18.046;2023-09-12T06:12:45;100567.83;;;17.80;82.43
76730;BME280;65653;53.106;18.046;2023-09-12T06:15:12;100572.91;;;17.97;81.95
76730;BME280;65653;53.106;18.046;2023-09-12T06:17:38;100574.58;;;18.14;81.48
76730;BME280;65653;53.106;18.046;2023-09-12T06:20:05;100581.77;;;18.31;81.04
76730;BME280;65653;53.106;18.046;2023-09-12T06:22:32;100575.96;;;18.47;80.57
76730;BME280;65653;53.106;18.046;2023-09-12T06:25:00;100576.43;;;18.65;80.46
76730;BME280;65653;53.106;18.046;2023-09-12T06:27:27;100577.98;;;18.82;79.78
76730;BME280;65653;53.106;18.046;2023-09-12T06:29:53;100575.64;;;18.98;79.27
76730;BME280;65653;53.106;18.046;2023-09-12T06:32:20;100576.05;;;19.14;78.69
76730;BME280;65653;53.106;18.046;2023-09-12T06:34:46;100579.98;;;19.31;78.25
76730;BME280;65653;53.106;18.046;2023-09-12T06:37:13;100584.10;;;19.47;77.51
76730;BME280;65653;53.106;18.046;2023-09-12T06:39:40;100583.42;;;19.63;77.23
76730;BME280;65653;53.106;18.046;2023-09-12T06:42:07;100580.86;;;19.81;76.81
76730;BME280;65653;53.106;18.046;2023-09-12T06:44:34;100579.53;;;19.98;76.32
76730;BME280;65653;53.106;18.046;2023-09-12T06:47:03;100579.04;;;20.14;76.01
76730;BME280;65653;53.106;18.046;2023-09-12T06:49:29;100584.98;;;20.33;75.63
76730;BME280;65653;53.106;18.046;2023-09-12T06:51:58;100586.09;;;20.51;75.22
76730;BME280;65653;53.106;18.046;2023-09-12T06:54:25;100583.36;;;20.68;74.06
76730;BME280;65653;53.106;18.046;2023-09-12T06:56:51;100581.02;;;20.86;73.24
76730;BME280;65653;53.106;18.046;2023-09-12T06:59:18;100576.23;;;21.02;72.66
76730;BME280;65653;53.106;18.046;2023-09-12T07:01:44;100580.31;;;21.21;71.85
76730;BME280;65653;53.106;18.046;2023-09-12T07:04:11;100578.48;;;21.40;71.06
76730;BME280;65653;53.106;18.046;2023-09-12T07:06:38;100580.47;;;21.56;68.89
76730;BME280;65653;53.106;18.046;2023-09-12T07:09:06;100582.52;;;21.71;68.82
76730;BME280;65653;53.106;18.046;2023-09-12T07:11:35;100581.69;;;21.87;68.62
76730;BME280;65653;53.106;18.046;2023-09-12T07:14:01;100584.29;;;22.03;68.19
76730;BME280;65653;53.106;18.046;2023-09-12T07:16:31;100580.02;;;22.22;68.06
76730;BME280;65653;53.106;18.046;2023-09-12T07:18:57;100575.46;;;22.38;66.88
76730;BME280;65653;53.106;18.046;2023-09-12T07:21:24;100576.11;;;22.51;66.26
76730;BME280;65653;53.106;18.046;2023-09-12T07:23:50;100582.52;;;22.70;66.46
76730;BME280;65653;53.106;18.046;2023-09-12T07:26:17;100577.77;;;22.84;65.38
76730;BME280;65653;53.106;18.046;2023-09-12T07:28:43;100577.02;;;22.98;64.98
76730;BME280;65653;53.106;18.046;2023-09-12T07:31:10;100573.27;;;23.12;63.80
76730;BME280;65653;53.106;18.046;2023-09-12T07:33:37;100573.88;;;23.25;63.53
76730;BME280;65653;53.106;18.046;2023-09-12T07:36:03;100574.36;;;23.43;62.87
76730;BME280;65653;53.106;18.046;2023-09-12T07:38:30;100573.40;;;23.57;62.34
76730;BME280;65653;53.106;18.046;2023-09-12T07:41:01;100581.48;;;23.72;61.06
76730;BME280;65653;53.106;18.046;2023-09-12T07:43:29;100583.52;;;23.87;61.09
76730;BME280;65653;53.106;18.046;2023-09-12T07:45:56;100581.52;;;24.01;60.39
76730;BME280;65653;53.106;18.046;2023-09-12T07:48:24;100578.43;;;24.19;60.06
76730;BME280;65653;53.106;18.046;2023-09-12T07:50:50;100580.63;;;24.32;58.71
76730;BME280;65653;53.106;18.046;2023-09-12T07:53:17;100578.36;;;24.62;58.49
76730;BME280;65653;53.106;18.046;2023-09-12T07:55:44;100575.75;;;25.33;56.71
76730;BME280;65653;53.106;18.046;2023-09-12T07:58:17;100573.39;;;26.03;56.28
76730;BME280;65653;53.106;18.046;2023-09-12T08:00:45;100577.35;;;26.68;53.90
76730;BME280;65653;53.106;18.046;2023-09-12T08:03:12;100572.47;;;27.24;52.40
76730;BME280;65653;53.106;18.046;2023-09-12T08:05:38;100570.23;;;27.80;51.38
76730;BME280;65653;53.106;18.046;2023-09-12T08:08:05;100568.95;;;28.29;49.61
76730;BME280;65653;53.106;18.046;2023-09-12T08:10:31;100567.77;;;28.81;49.06
76730;BME280;65653;53.106;18.046;2023-09-12T08:12:58;100565.31;;;29.22;45.37
76730;BME280;65653;53.106;18.046;2023-09-12T08:15:24;100561.10;;;29.54;43.43
76730;BME280;65653;53.106;18.046;2023-09-12T08:17:51;100568.63;;;29.90;43.81
76730;BME280;65653;53.106;18.046;2023-09-12T08:20:20;100570.86;;;30.39;43.31
76730;BME280;65653;53.106;18.046;2023-09-12T08:22:47;100567.70;;;30.85;40.68
76730;BME280;65653;53.106;18.046;2023-09-12T08:25:14;100568.56;;;31.20;40.52
76730;BME280;65653;53.106;18.046;2023-09-12T08:27:41;100567.11;;;31.69;40.30
76730;BME280;65653;53.106;18.046;2023-09-12T08:30:11;100566.59;;;32.16;38.74
76730;BME280;65653;53.106;18.046;2023-09-12T08:32:39;100570.20;;;32.67;37.31
76730;BME280;65653;53.106;18.046;2023-09-12T08:35:10;100568.41;;;33.17;37.00
76730;BME280;65653;53.106;18.046;2023-09-12T08:37:39;100565.10;;;33.66;36.26
76730;BME280;65653;53.106;18.046;2023-09-12T08:40:10;100558.34;;;34.02;34.36
76730;BME280;65653;53.106;18.046;2023-09-12T08:42:39;100552.02;;;34.50;34.46
76730;BME280;65653;53.106;18.046;2023-09-12T08:45:17;100552.63;;;35.00;33.23
76730;BME280;65653;53.106;18.046;2023-09-12T08:47:46;100555.94;;;35.36;31.52
76730;BME280;65653;53.106;18.046;2023-09-12T08:50:14;100555.88;;;35.47;31.25
76730;BME280;65653;53.106;18.046;2023-09-12T08:52:44;100553.88;;;35.74;30.88
76730;BME280;65653;53.106;18.046;2023-09-12T08:55:11;100553.27;;;36.29;30.09
76730;BME280;65653;53.106;18.046;2023-09-12T08:57:40;100554.70;;;36.63;29.19
76730;BME280;65653;53.106;18.046;2023-09-12T09:00:10;100553.00;;;36.96;28.61
76730;BME280;65653;53.106;18.046;2023-09-12T09:02:40;100553.08;;;37.15;27.85
76730;BME280;65653;53.106;18.046;2023-09-12T09:05:11;100552.11;;;37.51;27.14
76730;BME280;65653;53.106;18.046;2023-09-12T09:07:38;100552.02;;;37.89;25.91
76730;BME280;65653;53.106;18.046;2023-09-12T09:10:05;100546.95;;;38.07;25.11
76730;BME280;65653;53.106;18.046;2023-09-12T09:12:32;100546.52;;;38.31;24.70
76730;BME280;65653;53.106;18.046;2023-09-12T09:15:19;100547.38;;;38.32;23.46
76730;BME280;65653;53.106;18.046;2023-09-12T09:17:47;100548.10;;;38.37;23.73
76730;BME280;65653;53.106;18.046;2023-09-12T09:20:31;100547.52;;;38.19;24.47
76730;BME280;65653;53.106;18.046;2023-09-12T09:23:07;100544.21;;;38.68;23.95
76730;BME280;65653;53.106;18.046;2023-09-12T09:25:42;100538.36;;;39.46;23.53
76730;BME280;65653;53.106;18.046;2023-09-12T09:28:19;100540.02;;;39.87;22.07
76730;BME280;65653;53.106;18.046;2023-09-12T09:30:49;100535.43;;;39.94;22.06
76730;BME280;65653;53.106;18.046;2023-09-12T09:33:17;100533.38;;;40.13;21.21
76730;BME280;65653;53.106;18.046;2023-09-12T09:35:46;100525.58;;;40.13;21.19
76730;BME280;65653;53.106;18.046;2023-09-12T09:38:13;100522.92;;;40.37;21.38
76730;BME280;65653;53.106;18.046;2023-09-12T09:40:43;100524.14;;;40.28;21.14
76730;BME280;65653;53.106;18.046;2023-09-12T09:43:10;100519.30;;;40.22;20.92
76730;BME280;65653;53.106;18.046;2023-09-12T09:45:44;100515.27;;;40.05;20.84
76730;BME280;65653;53.106;18.046;2023-09-12T09:48:21;100510.84;;;40.20;21.02
76730;BME280;65653;53.106;18.046;2023-09-12T09:50:48;100515.15;;;40.50;20.71
76730;BME280;65653;53.106;18.046;2023-09-12T09:53:15;100510.41;;;41.02;20.52
76730;BME280;65653;53.106;18.046;2023-09-12T09:55:41;100512.73;;;41.35;20.40
76730;BME280;65653;53.106;18.046;2023-09-12T09:58:15;100510.91;;;41.69;19.40
76730;BME280;65653;53.106;18.046;2023-09-12T10:00:46;100511.65;;;41.78;19.69
76730;BME280;65653;53.106;18.046;2023-09-12T10:03:14;100512.62;;;42.05;19.63
76730;BME280;65653;53.106;18.046;2023-09-12T10:05:45;100506.21;;;42.25;18.79
76730;BME280;65653;53.106;18.046;2023-09-12T10:08:12;100506.89;;;42.53;19.22
76730;BME280;65653;53.106;18.046;2023-09-12T10:10:43;100504.56;;;42.54;18.81
76730;BME280;65653;53.106;18.046;2023-09-12T10:13:11;100500.38;;;42.40;19.13
76730;BME280;65653;53.106;18.046;2023-09-12T10:15:39;100508.67;;;41.92;18.53
76730;BME280;65653;53.106;18.046;2023-09-12T10:18:14;100509.14;;;41.40;18.87
76730;BME280;65653;53.106;18.046;2023-09-12T10:20:52;100502.54;;;41.59;19.08
76730;BME280;65653;53.106;18.046;2023-09-12T10:23:41;100500.83;;;42.17;18.63
76730;BME280;65653;53.106;18.046;2023-09-12T10:26:12;100496.34;;;42.70;16.90
76730;BME280;65653;53.106;18.046;2023-09-12T10:28:43;100501.86;;;42.10;17.83
76730;BME280;65653;53.106;18.046;2023-09-12T10:31:12;100499.81;;;42.37;17.70
76730;BME280;65653;53.106;18.046;2023-09-12T10:33:39;100499.14;;;42.75;17.51
76730;BME280;65653;53.106;18.046;2023-09-12T10:36:06;100494.80;;;43.60;17.06
76730;BME280;65653;53.106;18.046;2023-09-12T10:38:40;100496.30;;;43.76;16.54
76730;BME280;65653;53.106;18.046;2023-09-12T10:41:12;100490.94;;;43.96;17.03
76730;BME280;65653;53.106;18.046;2023-09-12T10:43:44;100492.83;;;43.92;16.75
76730;BME280;65653;53.106;18.046;2023-09-12T10:46:16;100493.29;;;44.02;16.44
76730;BME280;65653;53.106;18.046;2023-09-12T10:48:43;100491.33;;;43.84;15.56
76730;BME280;65653;53.106;18.046;2023-09-12T10:51:11;100485.33;;;43.55;16.09
76730;BME280;65653;53.106;18.046;2023-09-12T10:53:46;100484.78;;;43.81;15.73
76730;BME280;65653;53.106;18.046;2023-09-12T11:01:31;100471.11;;;43.21;15.43
76730;BME280;65653;53.106;18.046;2023-09-12T11:03:58;100473.52;;;43.21;15.76
76730;BME280;65653;53.106;18.046;2023-09-12T11:06:31;100471.89;;;43.17;15.69
76730;BME280;65653;53.106;18.046;2023-09-12T11:09:24;100464.73;;;43.27;15.72
76730;BME280;65653;53.106;18.046;2023-09-12T11:11:58;100470.79;;;43.93;15.60
76730;BME280;65653;53.106;18.046;2023-09-12T11:14:29;100470.73;;;43.97;15.07
76730;BME280;65653;53.106;18.046;2023-09-12T11:19:44;100473.00;;;44.44;15.48
76730;BME280;65653;53.106;18.046;2023-09-12T11:22:24;100474.48;;;44.67;15.25
76730;BME280;65653;53.106;18.046;2023-09-12T11:24:52;100471.80;;;44.72;15.27
76730;BME280;65653;53.106;18.046;2023-09-12T11:27:19;100472.77;;;44.32;15.48
76730;BME280;65653;53.106;18.046;2023-09-12T11:29:46;100475.70;;;43.88;15.50
76730;BME280;65653;53.106;18.046;2023-09-12T11:32:25;100476.41;;;44.23;15.27
76730;BME280;65653;53.106;18.046;2023-09-12T11:34:53;100477.82;;;45.26;15.04
76730;BME280;65653;53.106;18.046;2023-09-12T11:37:24;100471.94;;;45.71;14.47
76730;BME280;65653;53.106;18.046;2023-09-12T11:39:53;100470.58;;;45.80;14.88
76730;BME280;65653;53.106;18.046;2023-09-12T11:42:20;100468.96;;;46.00;14.80
76730;BME280;65653;53.106;18.046;2023-09-12T11:44:52;100472.31;;;46.05;14.39
76730;BME280;65653;53.106;18.046;2023-09-12T11:47:19;100473.40;;;45.77;13.78
76730;BME280;65653;53.106;18.046;2023-09-12T11:49:46;100473.23;;;45.73;13.38
76730;BME280;65653;53.106;18.046;2023-09-12T11:52:14;100471.44;;;45.54;13.75
76730;BME280;65653;53.106;18.046;2023-09-12T11:54:43;100467.16;;;45.76;13.60
76730;BME280;65653;53.106;18.046;2023-09-12T11:57:13;100466.02;;;46.17;13.96
76730;BME280;65653;53.106;18.046;2023-09-12T11:59:44;100462.55;;;46.37;13.39
76730;BME280;65653;53.106;18.046;2023-09-12T12:02:15;100456.06;;;46.45;13.44
76730;BME280;65653;53.106;18.046;2023-09-12T12:04:43;100453.98;;;46.45;13.50
76730;BME280;65653;53.106;18.046;2023-09-12T12:07:10;100452.45;;;46.58;13.39
76730;BME280;65653;53.106;18.046;2023-09-12T12:09:37;100461.72;;;46.35;13.11
76730;BME280;65653;53.106;18.046;2023-09-12T12:12:11;100462.74;;;45.53;13.36
76730;BME280;65653;53.106;18.046;2023-09-12T12:14:39;100467.17;;;45.14;13.68
76730;BME280;65653;53.106;18.046;2023-09-12T12:17:11;100461.40;;;45.66;13.78
76730;BME280;65653;53.106;18.046;2023-09-12T12:19:38;100458.29;;;46.03;13.47
76730;BME280;65653;53.106;18.046;2023-09-12T12:22:07;100462.75;;;46.09;13.43
76730;BME280;65653;53.106;18.046;2023-09-12T12:24:45;100466.11;;;45.64;13.30
76730;BME280;65653;53.106;18.046;2023-09-12T12:27:16;100464.03;;;45.93;13.65
76730;BME280;65653;53.106;18.046;2023-09-12T12:29:43;100462.83;;;46.20;12.89
76730;BME280;65653;53.106;18.046;2023-09-12T12:32:10;100457.96;;;46.43;12.82
76730;BME280;65653;53.106;18.046;2023-09-12T12:34:37;100460.82;;;45.86;12.95
76730;BME280;65653;53.106;18.046;2023-09-12T12:37:04;100459.95;;;45.50;13.35
76730;BME280;65653;53.106;18.046;2023-09-12T12:39:31;100456.53;;;45.46;13.74
76730;BME280;65653;53.106;18.046;2023-09-12T12:41:58;100452.23;;;44.70;13.80
76730;BME280;65653;53.106;18.046;2023-09-12T12:44:33;100453.88;;;44.66;14.13
76730;BME280;65653;53.106;18.046;2023-09-12T12:47:03;100455.79;;;45.10;13.79
76730;BME280;65653;53.106;18.046;2023-09-12T12:49:36;100452.71;;;45.53;13.55
76730;BME280;65653;53.106;18.046;2023-09-12T12:52:04;100446.80;;;45.88;13.28
76730;BME280;65653;53.106;18.046;2023-09-12T12:54:32;100441.52;;;45.97;13.14
76730;BME280;65653;53.106;18.046;2023-09-12T12:57:01;100439.35;;;45.81;13.00
76730;BME280;65653;53.106;18.046;2023-09-12T12:59:29;100439.81;;;45.98;13.14
76730;BME280;65653;53.106;18.046;2023-09-12T13:02:02;100438.40;;;46.27;13.33